CheckWX is a tool to help pilots better visualize weather data.  It is not intended as a substitute for an official pre-flight weather briefing.

04:16:56 UTC

KAIT METAR
Aitkin Municipal-Steve Kurtz Field Airport
Aitkin, Minnesota, USA
Current

22 mins ago

KAIT 290355Z AUTO 00000KT 10SM OVC019 M12/M14 A3013 RMK AO2
Observed
Jan-29 @ 03:55 UTC
Visibility
10 SM
Flight Rules
MVFR
Cloud Levels
  • Overcast at 1,900' AGL
Temperature
-12°C / 10°F
Dewpoint
-14°C / 7°F
Humidity
85%
Altimeter
30.13" Hg
Pressure
1020.32 hPa
Previous

42 mins ago

KAIT 290335Z AUTO 00000KT 10SM OVC019 M13/M14 A3013 RMK AO2
Observed
Jan-29 @ 03:35 UTC
Visibility
10 SM
Flight Rules
MVFR
Cloud Levels
  • Overcast at 1,900' AGL
Temperature
-13°C / 9°F
Dewpoint
-14°C / 7°F
Humidity
92%
Altimeter
30.13" Hg
Pressure
1020.32 hPa
Previous

1 hour ago

KAIT 290315Z AUTO 00000KT 10SM OVC019 M13/M15 A3012 RMK AO2
Observed
Jan-29 @ 03:15 UTC
Visibility
10 SM
Flight Rules
MVFR
Cloud Levels
  • Overcast at 1,900' AGL
Temperature
-13°C / 9°F
Dewpoint
-15°C / 5°F
Humidity
85%
Altimeter
30.12" Hg
Pressure
1020.02 hPa